createdAt,value
2017-01-28T00:00:12.914Z,0
2017-01-28T00:01:17.179Z,0
2017-01-28T00:02:21.428Z,0
2017-01-28T00:03:26.628Z,0
2017-01-28T00:04:32.802Z,0
2017-01-28T00:05:38.007Z,0
2017-01-28T00:06:44.171Z,0
2017-01-28T00:07:49.339Z,0
2017-01-28T00:08:55.511Z,0
2017-01-28T00:10:00.725Z,0
2017-01-28T00:11:04.935Z,0
2017-01-28T00:12:10.136Z,0
2017-01-28T00:13:15.374Z,0
2017-01-28T00:14:20.539Z,0
2017-01-28T00:15:26.703Z,0
2017-01-28T00:16:32.991Z,0
2017-01-28T00:17:39.162Z,0
2017-01-28T00:18:44.380Z,0
2017-01-28T00:19:47.669Z,0
2017-01-28T00:20:53.822Z,0
2017-01-28T00:21:59.980Z,0
2017-01-28T00:23:04.196Z,0
2017-01-28T00:24:09.367Z,0
2017-01-28T00:25:14.574Z,0
2017-01-28T00:26:17.851Z,0
2017-01-28T00:27:24.051Z,0
2017-01-28T00:28:30.192Z,0
2017-01-28T00:29:35.370Z,0
2017-01-28T00:30:41.537Z,0
2017-01-28T00:31:47.707Z,0
2017-01-28T00:32:53.936Z,0
2017-01-28T00:34:00.059Z,0
2017-01-28T00:35:06.228Z,0
2017-01-28T00:36:12.420Z,0
2017-01-28T00:37:17.616Z,0
2017-01-28T00:38:22.924Z,0
2017-01-28T00:39:29.130Z,0
2017-01-28T00:40:35.389Z,0
2017-01-28T00:41:40.560Z,0
2017-01-28T00:42:45.768Z,0
2017-01-28T00:43:51.946Z,0
2017-01-28T00:44:57.156Z,0
2017-01-28T00:46:03.323Z,0
2017-01-28T00:47:08.528Z,0
2017-01-28T00:48:13.801Z,0
2017-01-28T00:49:19.932Z,0
2017-01-28T00:50:26.121Z,0
2017-01-28T00:51:31.304Z,0
2017-01-28T00:52:35.516Z,0
2017-01-28T00:53:41.753Z,0
2017-01-28T00:54:47.897Z,0
2017-01-28T00:55:54.068Z,0
2017-01-28T00:56:59.301Z,0
2017-01-28T00:58:03.469Z,0
2017-01-28T00:59:09.635Z,0
2017-01-28T01:00:13.850Z,0
2017-01-28T01:01:19.063Z,0
2017-01-28T01:02:25.227Z,0
2017-01-28T01:03:30.446Z,0
2017-01-28T01:04:35.649Z,0
2017-01-28T01:05:41.841Z,0
2017-01-28T01:06:48.057Z,0
2017-01-28T01:07:53.177Z,0
2017-01-28T01:08:58.359Z,0
2017-01-28T01:10:03.549Z,0
2017-01-28T01:11:09.713Z,0
2017-01-28T01:12:14.947Z,0
2017-01-28T01:13:21.127Z,0
2017-01-28T01:14:27.257Z,0
2017-01-28T01:15:32.527Z,0
2017-01-28T01:16:37.729Z,0
2017-01-28T01:17:43.910Z,0
2017-01-28T01:18:50.118Z,0
2017-01-28T01:19:55.293Z,0
2017-01-28T01:21:00.497Z,0
2017-01-28T01:22:05.801Z,0
2017-01-28T01:23:11.039Z,0
2017-01-28T01:24:17.246Z,0
2017-01-28T01:25:23.417Z,0
2017-01-28T01:26:27.700Z,0
2017-01-28T01:27:33.928Z,0
2017-01-28T01:28:38.125Z,0
2017-01-28T01:29:42.329Z,0
2017-01-28T01:30:48.489Z,0
2017-01-28T01:31:52.715Z,0
2017-01-28T01:32:57.935Z,0
2017-01-28T01:34:04.094Z,0
2017-01-28T01:35:10.274Z,0
2017-01-28T01:36:16.496Z,0
2017-01-28T01:37:22.659Z,0
2017-01-28T01:38:28.871Z,0
2017-01-28T01:39:35.075Z,0
2017-01-28T01:40:41.266Z,0
2017-01-28T01:41:47.409Z,0
2017-01-28T01:42:53.575Z,0
2017-01-28T01:43:58.783Z,0
2017-01-28T01:45:03.083Z,0
2017-01-28T01:46:08.281Z,0
2017-01-28T01:47:13.540Z,0
2017-01-28T01:48:19.670Z,0
2017-01-28T01:49:25.852Z,0
2017-01-28T01:50:31.050Z,0
2017-01-28T01:51:36.246Z,0
2017-01-28T01:52:42.428Z,0
2017-01-28T01:53:47.734Z,0
2017-01-28T01:54:52.909Z,0
2017-01-28T01:55:59.161Z,0
2017-01-28T01:57:04.356Z,0
2017-01-28T01:58:09.566Z,0
2017-01-28T01:59:10.869Z,0
2017-01-28T02:00:17.033Z,0
2017-01-28T02:01:23.253Z,0
2017-01-28T02:02:29.415Z,0
2017-01-28T02:03:35.586Z,0
2017-01-28T02:04:40.789Z,0
2017-01-28T02:05:46.963Z,0
2017-01-28T02:06:52.159Z,0
2017-01-28T02:07:56.411Z,0
2017-01-28T02:09:01.653Z,0
2017-01-28T02:10:06.804Z,0
2017-01-28T02:11:12.973Z,0
2017-01-28T02:12:16.219Z,0
2017-01-28T02:13:21.428Z,0
2017-01-28T02:14:26.592Z,0
2017-01-28T02:15:32.758Z,0
2017-01-28T02:16:38.060Z,0
2017-01-28T02:17:43.257Z,0
2017-01-28T02:18:49.461Z,0
2017-01-28T02:19:55.627Z,0
2017-01-28T02:22:06.994Z,0
2017-01-28T02:23:13.167Z,0
2017-01-28T02:24:17.396Z,0
2017-01-28T02:25:22.598Z,0
2017-01-28T02:26:28.767Z,0
2017-01-28T02:27:34.066Z,0
2017-01-28T02:28:40.211Z,0
2017-01-28T02:29:46.356Z,0
2017-01-28T02:30:51.551Z,0
2017-01-28T02:31:57.723Z,0
2017-01-28T02:33:03.886Z,0
2017-01-28T02:34:09.087Z,0
2017-01-28T02:35:15.343Z,0
2017-01-28T02:36:21.521Z,0
2017-01-28T02:37:27.725Z,0
2017-01-28T02:38:33.889Z,0
2017-01-28T02:39:39.156Z,0
2017-01-28T02:40:44.327Z,0
2017-01-28T02:41:50.493Z,0
2017-01-28T02:42:56.666Z,0
2017-01-28T02:44:02.872Z,0
2017-01-28T02:45:09.020Z,0
2017-01-28T02:46:14.189Z,0
2017-01-28T02:47:20.361Z,0
2017-01-28T02:48:26.522Z,0
2017-01-28T02:49:31.723Z,0
2017-01-28T02:50:37.898Z,0
2017-01-28T02:51:43.105Z,0
2017-01-28T02:52:49.262Z,0
2017-01-28T02:53:53.577Z,0
2017-01-28T02:54:58.773Z,0
2017-01-28T02:56:03.970Z,0
2017-01-28T02:57:08.182Z,0
2017-01-28T02:58:12.412Z,0
2017-01-28T02:59:18.580Z,0
2017-01-28T03:00:22.809Z,0
2017-01-28T03:01:28.985Z,0
2017-01-28T03:02:35.144Z,0
2017-01-28T03:03:41.323Z,0
2017-01-28T03:04:46.487Z,0
2017-01-28T03:05:52.653Z,0
2017-01-28T03:06:56.890Z,0
2017-01-28T03:08:02.054Z,0
2017-01-28T03:09:08.264Z,0
2017-01-28T03:10:12.495Z,0
2017-01-28T03:11:18.670Z,0
2017-01-28T03:12:24.841Z,0
2017-01-28T03:13:30.052Z,0
2017-01-28T03:14:35.242Z,0
2017-01-28T03:15:41.406Z,0
2017-01-28T03:16:47.574Z,0
2017-01-28T03:17:53.739Z,0
2017-01-28T03:18:58.942Z,0
2017-01-28T03:20:04.139Z,0
2017-01-28T03:21:10.316Z,0
2017-01-28T03:22:15.483Z,0
2017-01-28T03:23:21.658Z,0
2017-01-28T03:24:26.851Z,0
2017-01-28T03:25:31.079Z,0
2017-01-28T03:26:36.270Z,0
2017-01-28T03:27:42.542Z,0
2017-01-28T03:28:45.779Z,0
2017-01-28T03:29:50.014Z,0
2017-01-28T03:30:54.227Z,0
2017-01-28T03:31:58.459Z,0
2017-01-28T03:33:03.627Z,0
2017-01-28T03:34:08.893Z,0
2017-01-28T03:35:14.097Z,0
2017-01-28T03:36:18.349Z,0
2017-01-28T03:37:22.571Z,0
2017-01-28T03:38:28.740Z,0
2017-01-28T03:39:32.936Z,0
2017-01-28T03:40:37.186Z,0
2017-01-28T03:41:42.377Z,0
2017-01-28T03:42:48.564Z,0
2017-01-28T03:43:54.766Z,0
2017-01-28T03:44:59.920Z,0
2017-01-28T03:46:06.086Z,0
2017-01-28T03:47:12.293Z,0
2017-01-28T03:48:17.463Z,0
2017-01-28T03:49:23.656Z,0
2017-01-28T03:50:28.831Z,0
2017-01-28T03:51:34.009Z,0
2017-01-28T03:52:39.205Z,0
2017-01-28T03:53:44.437Z,0
2017-01-28T03:54:50.607Z,0
2017-01-28T03:55:56.766Z,0
2017-01-28T03:57:02.936Z,0
2017-01-28T03:58:09.167Z,0
2017-01-28T03:59:15.335Z,0
2017-01-28T04:00:21.500Z,0
2017-01-28T04:01:25.717Z,0
2017-01-28T04:02:31.889Z,0
2017-01-28T04:03:36.096Z,0
2017-01-28T04:04:42.258Z,0
2017-01-28T04:05:46.468Z,0
2017-01-28T04:06:51.638Z,0
2017-01-28T04:07:56.840Z,0
2017-01-28T04:09:01.076Z,0
2017-01-28T04:10:06.278Z,0
2017-01-28T04:11:11.471Z,0
2017-01-28T04:12:16.647Z,0
2017-01-28T04:13:21.844Z,0
2017-01-28T04:14:27.007Z,0
2017-01-28T04:15:33.218Z,0
2017-01-28T04:16:39.394Z,0
2017-01-28T04:17:45.775Z,0
2017-01-28T04:18:50.973Z,0
2017-01-28T04:19:57.148Z,0
2017-01-28T04:21:03.362Z,0
2017-01-28T04:22:09.535Z,0
2017-01-28T04:23:15.745Z,0
2017-01-28T04:24:21.877Z,0
2017-01-28T04:25:27.044Z,0
2017-01-28T04:26:32.243Z,0
2017-01-28T04:27:36.450Z,0
2017-01-28T04:28:42.610Z,0
2017-01-28T04:29:48.777Z,0
2017-01-28T04:30:52.976Z,0
2017-01-28T04:31:57.204Z,0
2017-01-28T04:33:02.396Z,0
2017-01-28T04:34:06.626Z,0
2017-01-28T04:35:12.779Z,0
2017-01-28T04:36:18.944Z,0
2017-01-28T04:37:23.301Z,0
2017-01-28T04:38:28.580Z,0
2017-01-28T04:39:31.865Z,0
2017-01-28T04:40:38.031Z,0
2017-01-28T04:41:44.194Z,0
2017-01-28T04:42:50.352Z,0
2017-01-28T04:43:55.558Z,0
2017-01-28T04:45:01.725Z,0
2017-01-28T04:46:06.924Z,0
2017-01-28T04:47:11.252Z,0
2017-01-28T04:48:16.437Z,0
2017-01-28T04:49:21.663Z,0
2017-01-28T04:50:27.980Z,0
2017-01-28T04:51:33.091Z,0
2017-01-28T04:52:38.286Z,0
2017-01-28T04:53:44.446Z,0
2017-01-28T04:54:49.647Z,0
2017-01-28T04:55:55.825Z,0
2017-01-28T04:57:01.993Z,0
2017-01-28T04:58:08.154Z,0
2017-01-28T04:59:14.339Z,0
2017-01-28T05:00:18.577Z,0
2017-01-28T05:01:23.866Z,0
2017-01-28T05:02:30.043Z,0
2017-01-28T05:03:36.213Z,0
2017-01-28T05:04:41.416Z,0
2017-01-28T05:05:47.592Z,0
2017-01-28T05:06:53.770Z,0
2017-01-28T05:07:59.945Z,0
2017-01-28T05:09:04.146Z,0
2017-01-28T05:10:09.343Z,0
2017-01-28T05:11:13.560Z,0
2017-01-28T05:12:18.750Z,0
2017-01-28T05:13:22.957Z,0
2017-01-28T05:14:29.216Z,0
2017-01-28T05:15:32.479Z,0
2017-01-28T05:16:37.750Z,0
2017-01-28T05:17:42.925Z,0
2017-01-28T05:18:47.166Z,0
2017-01-28T05:19:53.324Z,0
2017-01-28T05:20:58.528Z,0
2017-01-28T05:22:03.762Z,0
2017-01-28T05:23:09.903Z,0
2017-01-28T05:24:15.159Z,0
2017-01-28T05:25:21.316Z,0
2017-01-28T05:26:26.516Z,0
2017-01-28T05:27:32.693Z,0
2017-01-28T05:28:36.922Z,0
2017-01-28T05:29:43.100Z,0
2017-01-28T05:30:49.299Z,0
2017-01-28T05:31:55.464Z,0
2017-01-28T05:33:00.665Z,0
2017-01-28T05:34:04.866Z,0
2017-01-28T05:35:10.108Z,0
2017-01-28T05:36:16.231Z,0
2017-01-28T05:37:22.401Z,0
2017-01-28T05:38:25.627Z,0
2017-01-28T05:39:30.836Z,0
2017-01-28T05:40:37.005Z,0
2017-01-28T05:41:42.302Z,0
2017-01-28T05:42:45.671Z,0
2017-01-28T05:43:50.770Z,0
2017-01-28T05:44:56.972Z,0
2017-01-28T05:46:03.139Z,0
2017-01-28T05:47:09.328Z,0
2017-01-28T05:48:13.567Z,0
2017-01-28T05:49:18.775Z,0
2017-01-28T05:50:24.937Z,0
2017-01-28T05:51:29.145Z,0
2017-01-28T05:52:35.317Z,0
2017-01-28T05:53:39.522Z,0
2017-01-28T05:54:43.779Z,0
2017-01-28T05:55:50.014Z,0
2017-01-28T05:56:56.153Z,0
2017-01-28T05:58:02.365Z,0
2017-01-28T05:59:07.562Z,0
2017-01-28T06:00:13.726Z,0
2017-01-28T06:01:19.896Z,0
2017-01-28T06:02:26.066Z,0
2017-01-28T06:03:30.264Z,0
2017-01-28T06:04:34.474Z,0
2017-01-28T06:05:40.634Z,0
2017-01-28T06:06:46.799Z,0
2017-01-28T06:07:51.031Z,0
2017-01-28T06:08:55.265Z,0
2017-01-28T06:10:00.461Z,0
2017-01-28T06:11:04.691Z,0
2017-01-28T06:12:10.891Z,0
2017-01-28T06:13:15.122Z,0
2017-01-28T06:14:20.316Z,0
2017-01-28T06:15:25.515Z,0
2017-01-28T06:16:30.717Z,0
2017-01-28T06:17:35.917Z,0
2017-01-28T06:18:42.083Z,0
2017-01-28T06:19:47.282Z,0
2017-01-28T06:20:52.447Z,0
2017-01-28T06:21:56.679Z,0
2017-01-28T06:23:00.917Z,0
2017-01-28T06:24:07.112Z,0
2017-01-28T06:25:12.270Z,0
2017-01-28T06:27:22.683Z,0
2017-01-28T06:28:26.918Z,0
2017-01-28T06:29:33.216Z,0
2017-01-28T06:30:37.449Z,0
2017-01-28T06:31:42.653Z,0
2017-01-28T06:32:47.875Z,0
2017-01-28T06:33:54.086Z,0
2017-01-28T06:34:56.346Z,0
2017-01-28T06:36:01.544Z,4
2017-01-28T06:37:06.712Z,0
2017-01-28T06:38:12.953Z,0
2017-01-28T06:39:18.147Z,0
2017-01-28T06:40:23.321Z,4
2017-01-28T06:41:26.603Z,0
2017-01-28T06:42:32.775Z,4
2017-01-28T06:43:39.053Z,4
2017-01-28T06:44:45.220Z,4
2017-01-28T06:45:50.434Z,4
2017-01-28T06:46:56.613Z,8
2017-01-28T06:48:01.940Z,8
2017-01-28T06:49:05.200Z,8
2017-01-28T06:50:10.399Z,12
2017-01-28T06:51:16.608Z,12
2017-01-28T06:52:21.800Z,12
2017-01-28T06:53:27.974Z,12
2017-01-28T06:54:33.174Z,20
2017-01-28T06:55:38.313Z,20
2017-01-28T06:56:43.513Z,28
2017-01-28T06:57:48.711Z,32
2017-01-28T06:58:54.889Z,40
2017-01-28T07:00:00.064Z,44
2017-01-28T07:01:05.263Z,52
2017-01-28T07:02:10.465Z,64
2017-01-28T07:03:15.666Z,76
2017-01-28T07:04:20.875Z,84
2017-01-28T07:05:27.046Z,104
2017-01-28T07:06:32.245Z,116
2017-01-28T07:07:38.418Z,132
2017-01-28T07:08:44.592Z,148
2017-01-28T07:09:49.811Z,172
2017-01-28T07:10:55.068Z,192
2017-01-28T07:12:00.259Z,216
2017-01-28T07:13:06.426Z,232
2017-01-28T07:14:09.662Z,248
2017-01-28T07:15:14.857Z,260
2017-01-28T07:16:20.154Z,268
2017-01-28T07:17:26.314Z,288
2017-01-28T07:18:32.482Z,312
2017-01-28T07:19:37.692Z,340
2017-01-28T07:20:43.878Z,376
2017-01-28T07:21:50.058Z,416
2017-01-28T07:22:55.245Z,460
2017-01-28T07:24:01.418Z,512
2017-01-28T07:25:07.580Z,556
2017-01-28T07:26:13.758Z,608
2017-01-28T07:27:18.933Z,656
2017-01-28T07:28:25.102Z,676
2017-01-28T07:29:30.299Z,724
2017-01-28T07:30:36.460Z,768
2017-01-28T07:31:41.641Z,808
2017-01-28T07:32:47.895Z,844
2017-01-28T07:33:54.067Z,888
2017-01-28T07:34:59.273Z,932
2017-01-28T07:36:03.587Z,980
2017-01-28T07:37:08.782Z,1032
2017-01-28T07:38:13.992Z,1092
2017-01-28T07:39:19.161Z,1160
2017-01-28T07:40:24.335Z,1224
2017-01-28T07:41:30.506Z,1288
2017-01-28T07:42:36.751Z,1340
2017-01-28T07:43:40.979Z,1360
2017-01-28T07:44:46.191Z,1436
2017-01-28T07:45:52.355Z,1516
2017-01-28T07:46:57.593Z,1588
2017-01-28T07:48:02.778Z,1660
2017-01-28T07:49:08.006Z,1748
2017-01-28T07:50:14.216Z,1848
2017-01-28T07:51:19.394Z,1948
2017-01-28T07:52:23.624Z,2084
2017-01-28T07:53:28.799Z,2268
2017-01-28T07:54:32.031Z,2556
2017-01-28T07:55:38.240Z,2996
2017-01-28T07:56:44.457Z,3100
2017-01-28T07:57:50.596Z,3248
2017-01-28T07:58:55.779Z,3208
2017-01-28T08:00:02.097Z,3024
2017-01-28T08:01:07.305Z,2792
2017-01-28T08:02:13.580Z,2688
2017-01-28T08:03:19.751Z,2824
2017-01-28T08:04:23.948Z,3020
2017-01-28T08:05:30.119Z,3140
2017-01-28T08:06:35.329Z,3316
2017-01-28T08:07:41.513Z,3572
2017-01-28T08:08:47.787Z,3812
2017-01-28T08:09:53.965Z,4672
2017-01-28T08:11:00.208Z,4704
2017-01-28T08:12:04.420Z,4540
2017-01-28T08:13:09.621Z,3972
2017-01-28T08:14:15.809Z,3520
2017-01-28T08:15:21.008Z,3284
2017-01-28T08:16:27.393Z,2904
2017-01-28T08:17:33.585Z,2864
2017-01-28T08:18:39.756Z,2884
2017-01-28T08:19:44.926Z,2924
2017-01-28T08:20:49.211Z,2968
2017-01-28T08:21:55.379Z,3004
2017-01-28T08:23:01.566Z,3040
2017-01-28T08:24:07.838Z,3080
2017-01-28T08:25:13.994Z,3120
2017-01-28T08:26:19.164Z,3160
2017-01-28T08:27:24.382Z,3200
2017-01-28T08:28:29.652Z,3248
2017-01-28T08:29:33.897Z,3296
2017-01-28T08:30:39.109Z,3344
2017-01-28T08:31:42.358Z,3384
2017-01-28T08:32:48.587Z,3432
2017-01-28T08:33:54.924Z,3476
2017-01-28T08:34:58.178Z,3520
2017-01-28T08:36:04.352Z,3560
2017-01-28T08:37:08.586Z,3600
2017-01-28T08:38:13.808Z,3640
2017-01-28T08:39:18.992Z,3680
2017-01-28T08:40:23.222Z,3720
2017-01-28T08:41:28.424Z,3776
2017-01-28T08:42:34.598Z,3804
2017-01-28T08:43:40.761Z,3788
2017-01-28T08:44:45.988Z,3804
2017-01-28T08:45:51.158Z,3828
2017-01-28T08:46:55.387Z,3884
2017-01-28T08:47:59.625Z,3920
2017-01-28T08:49:04.834Z,3952
2017-01-28T08:50:10.996Z,3968
2017-01-28T08:51:17.157Z,3996
2017-01-28T08:52:21.362Z,4028
2017-01-28T08:53:25.639Z,4064
2017-01-28T08:54:30.781Z,4088
2017-01-28T08:55:36.993Z,4116
2017-01-28T08:56:43.132Z,4168
2017-01-28T08:57:46.376Z,4256
2017-01-28T08:58:49.653Z,4368
2017-01-28T08:59:55.844Z,4500
2017-01-28T09:01:01.995Z,4684
2017-01-28T09:02:08.163Z,4900
2017-01-28T09:03:12.415Z,5100
2017-01-28T09:04:17.626Z,5280
2017-01-28T09:05:23.801Z,5456
2017-01-28T09:06:28.105Z,5592
2017-01-28T09:07:33.301Z,5704
2017-01-28T09:08:37.514Z,5788
2017-01-28T09:09:43.682Z,5876
2017-01-28T09:10:48.886Z,5928
2017-01-28T09:11:55.069Z,5992
2017-01-28T09:13:00.281Z,6208
2017-01-28T09:14:05.507Z,6084
2017-01-28T09:15:10.672Z,6068
2017-01-28T09:16:14.905Z,6092
2017-01-28T09:17:20.202Z,6156
2017-01-28T09:18:25.393Z,6192
2017-01-28T09:19:30.593Z,6272
2017-01-28T09:20:36.770Z,6308
2017-01-28T09:21:42.940Z,6336
2017-01-28T09:22:47.150Z,6372
2017-01-28T09:23:51.414Z,6408
2017-01-28T09:24:56.559Z,6468
2017-01-28T09:26:01.767Z,6508
2017-01-28T09:27:04.994Z,6588
2017-01-28T09:28:09.286Z,6632
2017-01-28T09:29:14.496Z,6708
2017-01-28T09:30:19.754Z,6824
2017-01-28T09:31:24.956Z,6920
2017-01-28T09:32:31.137Z,7084
2017-01-28T09:33:34.396Z,7236
2017-01-28T09:34:39.628Z,7508
2017-01-28T09:35:45.760Z,7688
2017-01-28T09:37:55.202Z,8712
2017-01-28T09:39:00.405Z,9204
2017-01-28T09:40:05.633Z,9500
2017-01-28T09:41:10.837Z,9292
2017-01-28T09:42:15.075Z,9952
2017-01-28T09:43:20.307Z,9808
2017-01-28T09:44:24.595Z,10388
2017-01-28T09:45:29.839Z,10836
2017-01-28T09:46:35.987Z,10248
2017-01-28T09:47:42.159Z,10052
2017-01-28T09:48:47.370Z,10364
2017-01-28T09:49:51.607Z,10516
2017-01-28T09:50:57.807Z,10860
2017-01-28T09:52:02.012Z,10972
2017-01-28T09:53:07.274Z,10424
2017-01-28T09:54:13.443Z,9376
2017-01-28T09:55:19.617Z,9336
2017-01-28T09:56:24.822Z,9808
2017-01-28T09:57:30.995Z,9696
2017-01-28T09:58:37.178Z,8436
2017-01-28T09:59:41.389Z,9056
2017-01-28T10:00:47.572Z,9088
2017-01-28T10:01:53.747Z,11512
2017-01-28T10:02:59.920Z,13788
2017-01-28T10:04:05.119Z,17120
2017-01-28T10:05:10.343Z,17440
2017-01-28T10:06:14.603Z,15424
2017-01-28T10:07:19.797Z,16256
2017-01-28T10:08:25.029Z,18400
2017-01-28T10:09:31.187Z,17056
2017-01-28T10:10:37.359Z,16352
2017-01-28T10:11:42.548Z,14404
2017-01-28T10:12:48.732Z,15488
2017-01-28T10:13:54.908Z,10020
2017-01-28T10:15:01.096Z,9376
2017-01-28T10:16:06.349Z,8056
2017-01-28T10:17:12.525Z,8668
2017-01-28T10:18:18.702Z,10784
2017-01-28T10:19:24.891Z,12900
2017-01-28T10:20:31.051Z,15552
2017-01-28T10:21:37.239Z,20800
2017-01-28T10:22:42.441Z,21824
2017-01-28T10:23:48.623Z,10544
2017-01-28T10:24:53.868Z,10412
2017-01-28T10:26:00.010Z,15840
2017-01-28T10:27:06.181Z,18016
2017-01-28T10:28:12.358Z,27360
2017-01-28T10:29:18.535Z,30240
2017-01-28T10:30:24.723Z,27968
2017-01-28T10:31:28.942Z,28960
2017-01-28T10:32:34.265Z,29280
2017-01-28T10:33:40.448Z,29824
2017-01-28T10:34:45.658Z,31424
2017-01-28T10:35:50.868Z,31456
2017-01-28T10:36:54.161Z,33344
2017-01-28T10:38:00.356Z,33504
2017-01-28T10:39:06.529Z,16032
2017-01-28T10:40:11.743Z,17280
2017-01-28T10:41:16.986Z,13260
2017-01-28T10:42:23.145Z,23616
2017-01-28T10:43:28.360Z,29056
2017-01-28T10:44:32.648Z,27360
2017-01-28T10:45:37.828Z,25568
2017-01-28T10:46:43.056Z,27904
2017-01-28T10:47:49.271Z,28544
2017-01-28T10:48:55.451Z,29568
2017-01-28T10:50:00.667Z,30912
2017-01-28T10:51:06.819Z,33728
2017-01-28T10:52:13.001Z,8704
2017-01-28T10:53:19.178Z,6976
2017-01-28T10:54:25.374Z,6212
2017-01-28T10:55:31.552Z,5768
2017-01-28T10:56:36.764Z,5472
2017-01-28T10:57:41.954Z,5336
2017-01-28T10:58:47.157Z,5380
2017-01-28T10:59:53.395Z,5596
2017-01-28T11:00:58.640Z,5928
2017-01-28T11:02:03.851Z,6332
2017-01-28T11:03:09.072Z,6756
2017-01-28T11:04:15.257Z,7204
2017-01-28T11:05:21.432Z,7672
2017-01-28T11:06:26.631Z,8172
2017-01-28T11:07:30.851Z,8560
2017-01-28T11:08:37.029Z,8696
2017-01-28T11:09:42.233Z,8544
2017-01-28T11:10:46.448Z,8332
2017-01-28T11:11:51.756Z,8140
2017-01-28T11:12:57.942Z,8028
2017-01-28T11:14:03.156Z,7992
2017-01-28T11:15:08.412Z,8076
2017-01-28T11:16:14.607Z,8220
2017-01-28T11:17:18.812Z,8308
2017-01-28T11:18:24.042Z,8232
2017-01-28T11:19:29.244Z,7948
2017-01-28T11:20:32.513Z,7544
2017-01-28T11:21:38.686Z,7036
2017-01-28T11:22:44.910Z,6484
2017-01-28T11:23:48.255Z,6052
2017-01-28T11:24:53.436Z,5752
2017-01-28T11:25:59.648Z,5552
2017-01-28T11:27:05.849Z,5456
2017-01-28T11:28:11.999Z,5396
2017-01-28T11:29:18.170Z,5332
2017-01-28T11:30:22.443Z,5320
2017-01-28T11:31:26.653Z,5304
2017-01-28T11:32:30.888Z,5136
2017-01-28T11:33:36.116Z,5000
2017-01-28T11:34:42.279Z,4820
2017-01-28T11:35:46.521Z,4672
2017-01-28T11:36:50.777Z,4620
2017-01-28T11:37:55.985Z,4668
2017-01-28T11:39:02.161Z,4696
2017-01-28T11:40:07.362Z,4712
2017-01-28T11:41:12.533Z,4716
2017-01-28T11:42:18.709Z,4752
2017-01-28T11:43:24.921Z,4820
2017-01-28T11:44:31.089Z,4936
2017-01-28T11:45:37.319Z,5028
2017-01-28T11:46:40.555Z,5020
2017-01-28T11:47:44.773Z,5088
2017-01-28T11:48:49.984Z,5176
2017-01-28T11:49:56.168Z,5104
2017-01-28T11:51:00.425Z,4996
2017-01-28T11:52:05.631Z,4836
2017-01-28T11:53:10.811Z,4632
2017-01-28T11:54:16.011Z,4408
2017-01-28T11:55:22.183Z,4232
2017-01-28T11:56:27.395Z,4080
2017-01-28T11:57:33.567Z,3944
2017-01-28T11:58:39.751Z,3860
2017-01-28T11:59:44.936Z,3832
2017-01-28T12:00:49.185Z,3940
2017-01-28T12:01:54.403Z,4100
2017-01-28T12:03:00.575Z,4408
2017-01-28T12:04:05.821Z,4728
2017-01-28T12:05:11.969Z,4988
2017-01-28T12:06:17.195Z,5176
2017-01-28T12:07:23.368Z,5288
2017-01-28T12:08:25.663Z,5304
2017-01-28T12:09:31.841Z,5252
2017-01-28T12:10:37.014Z,5204
2017-01-28T12:11:43.247Z,5184
2017-01-28T12:12:47.510Z,5204
2017-01-28T12:13:53.702Z,5240
2017-01-28T12:14:59.832Z,5236
2017-01-28T12:16:06.010Z,5208
2017-01-28T12:17:12.183Z,5168
2017-01-28T12:18:16.425Z,5120
2017-01-28T12:19:22.597Z,5000
2017-01-28T12:20:27.811Z,4860
2017-01-28T12:21:33.012Z,4820
2017-01-28T12:22:37.258Z,4868
2017-01-28T12:23:43.483Z,4952
2017-01-28T12:24:47.713Z,5056
2017-01-28T12:25:52.912Z,5200
2017-01-28T12:26:59.081Z,5320
2017-01-28T12:28:03.320Z,5452
2017-01-28T12:29:08.539Z,5604
2017-01-28T12:30:14.725Z,5768
2017-01-28T12:31:20.880Z,5968
2017-01-28T12:32:27.072Z,6148
2017-01-28T12:33:33.247Z,6284
2017-01-28T12:34:39.418Z,6380
2017-01-28T12:35:44.651Z,6400
2017-01-28T12:36:50.835Z,6372
2017-01-28T12:37:56.010Z,6340
2017-01-28T12:39:01.248Z,6280
2017-01-28T12:40:07.421Z,6236
2017-01-28T12:41:13.674Z,6248
2017-01-28T12:42:18.889Z,6320
2017-01-28T12:43:25.051Z,6392
2017-01-28T12:44:30.337Z,6424
2017-01-28T12:45:36.518Z,6396
2017-01-28T12:46:42.688Z,6268
2017-01-28T12:47:46.899Z,6120
2017-01-28T12:48:51.140Z,6004
2017-01-28T12:49:56.310Z,6052
2017-01-28T12:51:02.491Z,6168
2017-01-28T12:52:07.675Z,6284
2017-01-28T12:53:13.890Z,6344
2017-01-28T12:54:18.112Z,6172
2017-01-28T12:55:24.312Z,5832
2017-01-28T12:56:29.518Z,5500
2017-01-28T12:57:35.692Z,5232
2017-01-28T12:58:40.907Z,5040
2017-01-28T12:59:47.091Z,4860
2017-01-28T13:00:52.303Z,4648
2017-01-28T13:01:58.488Z,4492
2017-01-28T13:03:03.688Z,4332
2017-01-28T13:04:08.925Z,4196
2017-01-28T13:05:15.104Z,4104
2017-01-28T13:06:19.336Z,4112
2017-01-28T13:07:24.542Z,4172
2017-01-28T13:08:29.820Z,4140
2017-01-28T13:09:35.962Z,4148
2017-01-28T13:10:41.129Z,4132
2017-01-28T13:11:47.346Z,4004
2017-01-28T13:12:53.497Z,3920
2017-01-28T13:13:57.702Z,3808
2017-01-28T13:15:01.973Z,3704
2017-01-28T13:16:07.177Z,3608
2017-01-28T13:17:12.376Z,3452
2017-01-28T13:18:16.602Z,3424
2017-01-28T13:19:22.791Z,3456
2017-01-28T13:20:27.974Z,3408
2017-01-28T13:21:34.236Z,3388
2017-01-28T13:22:40.409Z,3392
2017-01-28T13:23:45.620Z,3384
2017-01-28T13:24:51.793Z,3328
2017-01-28T13:25:57.008Z,3252
2017-01-28T13:27:03.179Z,3204
2017-01-28T13:28:07.390Z,3148
2017-01-28T13:29:13.628Z,3068
2017-01-28T13:30:18.873Z,3024
2017-01-28T13:31:25.074Z,3016
2017-01-28T13:32:29.369Z,2996
2017-01-28T13:33:35.546Z,2964
2017-01-28T13:34:41.716Z,2904
2017-01-28T13:35:46.929Z,2840
2017-01-28T13:36:51.176Z,2744
2017-01-28T13:37:57.351Z,2712
2017-01-28T13:39:03.526Z,2696
2017-01-28T13:40:07.760Z,2684
2017-01-28T13:41:12.996Z,2676
2017-01-28T13:42:18.175Z,2668
2017-01-28T13:43:23.370Z,2652
2017-01-28T13:44:28.556Z,2616
2017-01-28T13:45:32.798Z,2576
2017-01-28T13:46:38.063Z,2540
2017-01-28T13:47:43.242Z,2500
2017-01-28T13:48:49.428Z,2464
2017-01-28T13:49:54.623Z,2432
2017-01-28T13:50:59.801Z,2400
2017-01-28T13:52:05.101Z,2384
2017-01-28T13:53:08.414Z,2368
2017-01-28T13:54:13.589Z,2356
2017-01-28T13:55:19.805Z,2332
2017-01-28T13:56:24.055Z,2312
2017-01-28T13:57:30.236Z,2288
2017-01-28T13:58:34.516Z,2276
2017-01-28T13:59:40.690Z,2264
2017-01-28T14:00:45.904Z,2248
2017-01-28T14:01:52.079Z,2236
2017-01-28T14:02:57.295Z,2220
2017-01-28T14:04:03.463Z,2200
2017-01-28T14:05:08.699Z,2176
2017-01-28T14:06:13.879Z,2160
2017-01-28T14:07:19.116Z,2136
2017-01-28T14:08:24.328Z,2116
2017-01-28T14:09:30.503Z,2096
2017-01-28T14:10:36.675Z,2072
2017-01-28T14:11:41.885Z,2056
2017-01-28T14:12:48.060Z,2036
2017-01-28T14:13:51.335Z,2016
2017-01-28T14:14:55.581Z,2008
2017-01-28T14:15:59.795Z,2000
2017-01-28T14:17:04.029Z,1992
2017-01-28T14:18:09.246Z,1988
2017-01-28T14:19:15.438Z,1996
2017-01-28T14:20:21.611Z,1992
2017-01-28T14:21:26.819Z,1992
2017-01-28T14:22:32.997Z,1996
2017-01-28T14:23:38.210Z,1996
2017-01-28T14:25:48.610Z,1996
2017-01-28T14:26:53.825Z,1996
2017-01-28T14:28:00.007Z,1996
2017-01-28T14:29:04.302Z,2000
2017-01-28T14:30:09.637Z,2000
2017-01-28T14:31:14.826Z,2004
2017-01-28T14:32:21.002Z,2012
2017-01-28T14:33:27.181Z,2016
2017-01-28T14:34:33.414Z,2024
2017-01-28T14:35:38.627Z,2028
2017-01-28T14:36:44.843Z,2032
2017-01-28T14:37:49.986Z,2044
2017-01-28T14:38:55.165Z,2048
2017-01-28T14:39:59.371Z,2052
2017-01-28T14:41:05.593Z,2048
2017-01-28T14:42:09.920Z,2052
2017-01-28T14:43:16.096Z,2044
2017-01-28T14:44:22.273Z,2044
2017-01-28T14:45:28.498Z,2048
2017-01-28T14:46:33.725Z,2044
2017-01-28T14:47:38.935Z,2044
2017-01-28T14:48:43.153Z,2044
2017-01-28T14:49:48.392Z,2044
2017-01-28T14:50:54.563Z,2048
2017-01-28T14:51:59.763Z,2052
2017-01-28T14:53:04.971Z,2052
2017-01-28T14:54:11.164Z,2064
2017-01-28T14:55:16.376Z,2068
2017-01-28T14:56:20.655Z,2084
2017-01-28T14:57:26.835Z,2112
2017-01-28T14:58:33.017Z,2164
2017-01-28T14:59:36.284Z,2232
2017-01-28T15:01:48.626Z,2412
2017-01-28T15:02:53.831Z,2504
2017-01-28T15:04:00.003Z,2588
2017-01-28T15:05:06.180Z,2636
2017-01-28T15:06:12.369Z,2660
2017-01-28T15:07:18.544Z,2672
2017-01-28T15:08:24.718Z,2672
2017-01-28T15:09:30.917Z,2672
2017-01-28T15:10:37.093Z,2672
2017-01-28T15:11:43.382Z,2676
2017-01-28T15:12:47.667Z,2664
2017-01-28T15:13:53.810Z,2628
2017-01-28T15:15:00.025Z,2580
2017-01-28T15:16:04.297Z,2508
2017-01-28T15:17:10.497Z,2432